Time;durP1;ratioP1;P1;durP2;ratioP2;P2;SDS_P1;SDS_P2;PMS_P1;PMS_P2;Temp;Humidity;BMP_temperature;BMP_pressure;BME280_temperature;BME280_humidity;BME280_pressure;Samples;Min_cycle;Max_cycle;Signal;HPM_P1;HPM_P2
2023/10/18 00:00:59;;;;;;;16.10;9.65;;;24.30;50.20;;;;;;4992836;28;20042;-69
2023/10/18 00:03:29;;;;;;;16.30;9.88;;;24.30;50.20;;;;;;4993128;28;20540;-68
2023/10/18 00:06:00;;;;;;;17.13;9.18;;;24.20;50.00;;;;;;5025615;28;20061;-69
2023/10/18 00:08:26;;;;;;;19.20;9.95;;;24.30;50.10;;;;;;5009457;28;20133;-68
2023/10/18 00:10:53;;;;;;;18.15;9.23;;;24.20;50.00;;;;;;5009074;28;20050;-69
2023/10/18 00:13:23;;;;;;;18.90;9.93;;;24.30;50.10;;;;;;5063291;28;20473;-66
2023/10/18 00:15:53;;;;;;;16.95;9.10;;;24.30;50.10;;;;;;5048806;28;20052;-68
2023/10/18 00:18:20;;;;;;;15.63;8.85;;;24.30;50.00;;;;;;5048931;28;20041;-68
2023/10/18 00:20:47;;;;;;;15.20;8.93;;;24.30;50.00;;;;;;5048720;28;20052;-68
2023/10/18 00:23:14;;;;;;;18.60;9.73;;;24.40;50.00;;;;;;5048678;28;20029;-68
2023/10/18 00:25:40;;;;;;;17.67;9.65;;;24.40;50.00;;;;;;5048611;28;20049;-68
2023/10/18 00:28:08;;;;;;;14.80;9.75;;;24.30;50.00;;;;;;5072073;28;20055;-68
2023/10/18 00:30:35;;;;;;;15.57;9.35;;;24.30;49.90;;;;;;5073278;28;20120;-68
2023/10/18 00:33:02;;;;;;;15.95;8.82;;;24.40;49.90;;;;;;5022203;28;20558;-68
2023/10/18 00:35:31;;;;;;;16.70;9.20;;;24.40;49.90;;;;;;5056561;28;20415;-68
2023/10/18 00:37:58;;;;;;;14.85;8.75;;;24.30;49.90;;;;;;5073062;28;20380;-69
2023/10/18 00:40:34;;;;;;;12.35;8.35;;;24.40;49.80;;;;;;5073208;28;20391;-68
2023/10/18 00:43:07;;;;;;;12.18;8.13;;;24.40;49.80;;;;;;5073029;28;20585;-69
2023/10/18 00:45:37;;;;;;;10.63;7.55;;;24.40;49.80;;;;;;5072483;28;20038;-69
2023/10/18 00:48:06;;;;;;;13.63;8.65;;;24.30;49.80;;;;;;5048148;28;20056;-68
2023/10/18 00:50:37;;;;;;;14.52;7.88;;;24.40;49.80;;;;;;5031808;28;20520;-68
2023/10/18 00:53:04;;;;;;;13.25;8.23;;;24.40;49.70;;;;;;5059745;28;20527;-68
2023/10/18 00:55:30;;;;;;;12.18;7.35;;;24.50;49.80;;;;;;5035216;28;20480;-68
2023/10/18 00:57:58;;;;;;;11.60;6.70;;;24.60;49.80;;;;;;5051650;28;20742;-69
2023/10/18 01:00:24;;;;;;;11.05;7.13;;;24.50;49.80;;;;;;5068306;28;20052;-68
2023/10/18 01:02:53;;;;;;;9.20;6.47;;;24.50;49.70;;;;;;5051458;28;20471;-68
2023/10/18 01:05:19;;;;;;;9.02;6.05;;;24.50;49.70;;;;;;5051616;28;20052;-68
2023/10/18 01:07:52;;;;;;;11.73;5.80;;;24.40;49.70;;;;;;5068319;28;20126;-69
2023/10/18 01:10:23;;;;;;;8.25;6.25;;;24.30;49.70;;;;;;5051790;28;20045;-68
2023/10/18 01:12:52;;;;;;;11.63;6.13;;;24.30;49.70;;;;;;5051357;28;20052;-68
2023/10/18 01:15:20;;;;;;;9.93;5.90;;;24.30;49.70;;;;;;5051903;28;20052;-68
2023/10/18 01:17:47;;;;;;;10.85;6.50;;;24.30;49.70;;;;;;5068140;28;20135;-68
2023/10/18 01:22:57;;;;;;;8.73;6.15;;;24.30;49.70;;;;;;5051306;28;20040;-68
2023/10/18 01:25:24;;;;;;;8.90;5.53;;;24.20;49.70;;;;;;5078087;28;20513;-69
2023/10/18 01:27:51;;;;;;;8.90;6.45;;;24.20;49.70;;;;;;5090702;28;20105;-68
2023/10/18 01:30:21;;;;;;;11.73;7.22;;;24.30;49.70;;;;;;5091092;28;20109;-68
2023/10/18 01:32:48;;;;;;;12.60;7.70;;;24.10;49.70;;;;;;5072592;28;20047;-68
2023/10/18 01:35:15;;;;;;;13.02;7.60;;;24.30;49.70;;;;;;5072654;28;20035;-69
2023/10/18 01:37:43;;;;;;;14.77;8.20;;;24.10;49.60;;;;;;5090715;28;20036;-68
2023/10/18 01:42:56;;;;;;;12.73;8.38;;;24.20;49.50;;;;;;5072901;28;20054;-68
2023/10/18 01:45:38;;;;;;;12.40;8.05;;;24.20;49.50;;;;;;5090696;28;20059;-68
2023/10/18 01:48:09;;;;;;;12.73;7.87;;;24.20;49.50;;;;;;5072520;28;20040;-68
2023/10/18 01:50:40;;;;;;;10.98;7.18;;;24.10;49.60;;;;;;5072066;28;20040;-68
2023/10/18 01:53:15;;;;;;;12.32;7.38;;;24.00;49.50;;;;;;5072574;28;20055;-68
2023/10/18 01:55:54;;;;;;;20.55;10.80;;;24.20;49.60;;;;;;5072343;28;20055;-68
2023/10/18 01:58:26;;;;;;;12.52;7.30;;;24.30;49.70;;;;;;5058587;28;20031;-69
2023/10/18 02:00:56;;;;;;;11.32;8.13;;;24.20;49.50;;;;;;5075959;28;20039;-68
2023/10/18 02:03:23;;;;;;;16.23;7.97;;;24.10;49.50;;;;;;5094077;28;20064;-68
2023/10/18 02:05:49;;;;;;;11.38;6.90;;;24.10;49.50;;;;;;5051277;28;20110;-68
2023/10/18 02:08:15;;;;;;;11.80;7.82;;;24.10;49.40;;;;;;5018111;28;20376;-68
2023/10/18 02:10:42;;;;;;;12.07;7.65;;;24.10;49.40;;;;;;5034643;28;20127;-68
2023/10/18 02:13:13;;;;;;;15.05;8.00;;;24.20;49.40;;;;;;5051191;28;20040;-68
2023/10/18 02:15:42;;;;;;;12.23;7.10;;;24.10;49.40;;;;;;5051044;28;20045;-68
2023/10/18 02:18:09;;;;;;;15.40;7.32;;;24.20;49.40;;;;;;5034822;28;20534;-68
2023/10/18 02:20:42;;;;;;;11.77;7.63;;;24.20;49.30;;;;;;5050946;28;20069;-68
2023/10/18 02:23:12;;;;;;;13.82;7.47;;;24.30;49.40;;;;;;5034497;28;20029;-68
2023/10/18 02:28:22;;;;;;;12.38;6.95;;;24.30;49.30;;;;;;5051024;28;20507;-69
2023/10/18 02:33:38;;;;;;;9.57;6.38;;;24.20;49.20;;;;;;5050856;28;20064;-68
2023/10/18 02:36:06;;;;;;;8.27;5.95;;;24.10;49.20;;;;;;5058236;28;20051;-68
2023/10/18 02:38:33;;;;;;;10.90;7.20;;;24.10;49.20;;;;;;5093495;28;20047;-68
2023/10/18 02:41:04;;;;;;;11.13;6.40;;;24.10;49.20;;;;;;5074981;28;20464;-68
2023/10/18 02:43:30;;;;;;;9.95;7.00;;;24.10;49.20;;;;;;5075122;28;20036;-68
2023/10/18 02:45:56;;;;;;;9.48;6.70;;;24.10;49.20;;;;;;5075102;28;20032;-68
2023/10/18 02:48:25;;;;;;;13.90;7.00;;;24.10;49.30;;;;;;5093358;28;20464;-68
2023/10/18 02:50:57;;;;;;;12.00;6.38;;;24.00;49.20;;;;;;5075179;28;20036;-68
2023/10/18 02:53:23;;;;;;;11.18;7.18;;;24.10;49.30;;;;;;5041668;28;20759;-68
2023/10/18 02:55:55;;;;;;;13.93;7.53;;;24.00;49.20;;;;;;5093158;28;20032;-68
2023/10/18 02:58:32;;;;;;;10.82;6.68;;;23.90;49.20;;;;;;5075207;28;20040;-68
2023/10/18 03:01:05;;;;;;;10.63;6.82;;;23.90;49.20;;;;;;5074651;28;20064;-68
2023/10/18 03:03:35;;;;;;;10.93;6.25;;;23.90;49.20;;;;;;5067842;28;20395;-67
2023/10/18 03:06:14;;;;;;;10.25;6.60;;;23.90;49.10;;;;;;5092716;28;20502;-68
2023/10/18 03:08:56;;;;;;;16.58;8.35;;;23.90;49.10;;;;;;5092242;28;20024;-68
2023/10/18 03:11:23;;;;;;;10.02;6.68;;;24.10;49.10;;;;;;5057900;28;20038;-69
2023/10/18 03:13:51;;;;;;;10.80;7.55;;;24.00;49.00;;;;;;5092774;28;20040;-68
2023/10/18 03:16:27;;;;;;;11.40;8.00;;;24.00;49.00;;;;;;5049764;28;20059;-68
2023/10/18 03:18:54;;;;;;;13.90;7.82;;;24.10;49.10;;;;;;5050102;28;20472;-69
2023/10/18 03:21:20;;;;;;;13.77;7.32;;;24.10;49.10;;;;;;5049785;28;20052;-69
2023/10/18 03:23:51;;;;;;;12.07;7.50;;;23.80;48.90;;;;;;5010099;28;20045;-68
2023/10/18 03:26:37;;;;;;;11.35;7.93;;;24.00;49.10;;;;;;5020270;28;20061;-67
2023/10/18 03:29:22;;;;;;;13.85;8.35;;;23.80;49.10;;;;;;5029665;28;20183;-69
2023/10/18 03:31:50;;;;;;;12.15;8.07;;;23.90;49.10;;;;;;5029196;28;20122;-68
2023/10/18 03:34:19;;;;;;;11.20;8.30;;;23.80;49.10;;;;;;5029646;28;20057;-68
2023/10/18 03:36:49;;;;;;;11.25;7.03;;;23.80;49.10;;;;;;5013121;28;20053;-68
2023/10/18 03:39:15;;;;;;;11.75;6.72;;;23.70;49.10;;;;;;5029567;28;20481;-68
2023/10/18 03:41:46;;;;;;;8.27;4.65;;;23.80;49.00;;;;;;5012902;28;20570;-68
2023/10/18 03:44:21;;;;;;;5.50;4.22;;;23.90;49.10;;;;;;5013206;28;20040;-70
2023/10/18 03:46:47;;;;;;;5.05;3.88;;;23.90;49.00;;;;;;5008091;28;20090;-70
2023/10/18 03:49:31;;;;;;;5.35;4.13;;;23.80;48.90;;;;;;5035956;28;20146;-69
2023/10/18 03:52:04;;;;;;;11.40;6.82;;;23.90;49.00;;;;;;5052767;28;20052;-68
2023/10/18 03:54:43;;;;;;;15.48;7.60;;;24.00;49.00;;;;;;5068687;28;20039;-68
2023/10/18 03:57:15;;;;;;;9.40;7.18;;;23.90;49.00;;;;;;5094160;28;20039;-68
2023/10/18 03:59:45;;;;;;;9.95;6.18;;;24.10;49.10;;;;;;5094280;28;20058;-70
2023/10/18 04:04:48;;;;;;;5.65;3.92;;;24.10;48.80;;;;;;5112721;28;20039;-70
2023/10/18 04:07:20;;;;;;;6.70;4.88;;;23.90;47.90;;;;;;5093906;28;20475;-67
2023/10/18 04:12:27;;;;;;;8.38;5.05;;;24.10;46.40;;;;;;5112044;28;20063;-66
2023/10/18 04:14:58;;;;;;;8.20;5.88;;;24.30;47.40;;;;;;5093774;28;20104;-65
2023/10/18 04:20:07;;;;;;;13.70;6.72;;;24.50;47.90;;;;;;5111303;28;20027;-65
2023/10/18 04:22:36;;;;;;;15.85;7.32;;;24.60;50.60;;;;;;5093394;28;20034;-64
2023/10/18 04:25:14;;;;;;;12.02;7.55;;;24.50;45.50;;;;;;5111992;28;20717;-64
2023/10/18 04:27:42;;;;;;;10.30;6.30;;;24.50;46.50;;;;;;5111999;28;20475;-66
2023/10/18 04:30:11;;;;;;;13.60;7.53;;;24.50;46.80;;;;;;5111481;28;20431;-65
2023/10/18 04:32:37;;;;;;;14.45;7.07;;;24.50;48.00;;;;;;5093438;28;20517;-66
2023/10/18 04:35:10;;;;;;;12.27;6.53;;;24.60;46.90;;;;;;5111466;28;20055;-66
2023/10/18 04:37:36;;;;;;;9.32;5.88;;;24.50;46.60;;;;;;5111687;28;20093;-63
2023/10/18 04:40:06;;;;;;;10.85;6.18;;;24.40;47.30;;;;;;5111641;28;20032;-66
2023/10/18 04:42:32;;;;;;;7.93;5.82;;;24.50;48.40;;;;;;5111637;28;20436;-64
2023/10/18 04:45:02;;;;;;;13.90;6.93;;;24.50;44.70;;;;;;5111556;28;20028;-66
2023/10/18 04:47:32;;;;;;;10.13;5.65;;;24.50;44.30;;;;;;5111371;28;20061;-66
2023/10/18 04:50:04;;;;;;;13.10;6.25;;;24.40;44.10;;;;;;5111550;28;20039;-66
2023/10/18 04:52:40;;;;;;;13.80;8.52;;;24.40;46.70;;;;;;5111516;28;20027;-66
2023/10/18 04:55:15;;;;;;;15.10;7.50;;;24.50;51.20;;;;;;5111510;28;20042;-67
2023/10/18 04:57:41;;;;;;;11.55;7.72;;;24.50;50.70;;;;;;5110107;28;20050;-70
2023/10/18 05:03:07;;;;;;;10.88;8.18;;;24.50;49.60;;;;;;4989145;28;20042;-68
2023/10/18 05:05:44;;;;;;;16.70;9.55;;;24.50;49.20;;;;;;4973477;28;20043;-69
2023/10/18 05:08:14;;;;;;;13.13;9.38;;;24.50;50.90;;;;;;4969592;28;20042;-69
2023/10/18 05:10:45;;;;;;;14.82;9.63;;;24.50;51.30;;;;;;4969697;28;20078;-70
2023/10/18 05:16:00;;;;;;;12.63;9.07;;;24.30;50.10;;;;;;4969690;28;20062;-70
2023/10/18 05:18:26;;;;;;;18.08;9.85;;;24.30;49.90;;;;;;4969814;28;20031;-68
2023/10/18 05:23:32;;;;;;;16.10;8.48;;;24.30;50.20;;;;;;4969573;28;20042;-68
2023/10/18 05:28:47;;;;;;;9.90;7.32;;;24.30;50.40;;;;;;4969534;28;20058;-69
2023/10/18 05:31:26;;;;;;;12.52;7.43;;;24.30;50.50;;;;;;4969307;28;20057;-68
2023/10/18 05:39:19;;;;;;;12.57;7.00;;;24.20;50.90;;;;;;4967657;28;20041;-72
2023/10/18 05:41:46;;;;;;;15.80;8.20;;;24.20;50.80;;;;;;5011982;28;20045;-71
2023/10/18 05:44:13;;;;;;;15.50;9.48;;;24.20;50.80;;;;;;5024935;28;20033;-69
2023/10/18 05:46:41;;;;;;;21.70;8.68;;;24.20;50.90;;;;;;5031926;28;20041;-69
2023/10/18 05:49:13;;;;;;;19.30;9.40;;;24.20;51.00;;;;;;5012294;28;20080;-68
2023/10/18 05:51:51;;;;;;;7.93;4.45;;;24.30;51.20;;;;;;5011987;28;20137;-66
2023/10/18 05:54:24;;;;;;;8.55;5.05;;;24.50;52.00;;;;;;5011712;28;20084;-69
2023/10/18 05:56:52;;;;;;;10.65;5.07;;;24.60;51.30;;;;;;5023443;28;20029;-68
2023/10/18 06:01:45;;;;;;;15.80;10.20;;;25.00;50.40;;;;;;5031637;28;20076;-72
2023/10/18 06:04:13;;;;;;;16.08;10.48;;;24.90;50.50;;;;;;5031242;28;20022;-70
2023/10/18 06:06:39;;;;;;;18.08;9.88;;;24.90;50.10;;;;;;5014749;28;20049;-70
2023/10/18 06:09:10;;;;;;;21.10;11.88;;;24.80;49.70;;;;;;5029451;28;20045;-70
2023/10/18 06:11:37;;;;;;;24.58;11.68;;;24.80;49.70;;;;;;5011562;28;20038;-70
2023/10/18 06:14:16;;;;;;;21.40;10.75;;;24.80;49.80;;;;;;5036124;28;20066;-70
2023/10/18 06:16:42;;;;;;;24.13;12.05;;;24.70;49.80;;;;;;5054636;28;20054;-69
2023/10/18 06:19:13;;;;;;;18.65;10.93;;;24.70;49.80;;;;;;5071390;28;20052;-70
2023/10/18 06:21:55;;;;;;;23.85;10.73;;;24.70;49.90;;;;;;5054276;28;20037;-70
2023/10/18 06:24:24;;;;;;;24.80;11.10;;;24.80;50.00;;;;;;5070858;28;20494;-69
2023/10/18 06:26:52;;;;;;;26.75;12.65;;;24.70;50.10;;;;;;5071316;28;20123;-69
2023/10/18 06:29:24;;;;;;;31.05;14.60;;;24.70;50.00;;;;;;5054326;28;20044;-70
2023/10/18 06:31:50;;;;;;;33.47;17.03;;;24.70;50.00;;;;;;5054086;28;20033;-70
2023/10/18 06:34:22;;;;;;;28.27;16.25;;;24.70;50.10;;;;;;5071071;28;20075;-69
2023/10/18 06:36:49;;;;;;;32.80;15.80;;;24.60;50.00;;;;;;5070922;28;20045;-71
2023/10/18 06:39:35;;;;;;;31.73;15.80;;;24.70;50.00;;;;;;5070915;28;20045;-70
2023/10/18 06:42:06;;;;;;;31.08;13.55;;;24.60;50.00;;;;;;5054015;28;20119;-70
2023/10/18 06:44:33;;;;;;;20.40;11.90;;;24.50;49.90;;;;;;5082101;28;20040;-70
2023/10/18 06:47:01;;;;;;;28.35;11.90;;;24.60;50.10;;;;;;5095302;28;20521;-69
2023/10/18 06:49:27;;;;;;;22.63;11.13;;;24.50;51.50;;;;;;5113768;28;20054;-67
2023/10/18 06:51:53;;;;;;;29.58;12.35;;;24.60;51.30;;;;;;5113722;28;20419;-70
2023/10/18 06:54:31;;;;;;;17.67;11.07;;;24.50;51.20;;;;;;5095663;28;20027;-69
2023/10/18 06:56:58;;;;;;;23.73;11.88;;;24.50;50.90;;;;;;5113447;28;20071;-69
2023/10/18 06:59:28;;;;;;;20.38;11.77;;;24.40;50.80;;;;;;5108309;28;20471;-69
2023/10/18 07:01:54;;;;;;;21.85;11.40;;;24.50;50.80;;;;;;5106441;28;20063;-71
2023/10/18 07:04:27;;;;;;;22.42;11.32;;;24.40;50.50;;;;;;5095804;28;20040;-70
2023/10/18 07:06:55;;;;;;;15.13;11.00;;;24.30;50.50;;;;;;5113307;28;20479;-71
2023/10/18 07:09:27;;;;;;;20.70;10.40;;;24.30;50.50;;;;;;5110184;28;20520;-71
2023/10/18 07:11:57;;;;;;;19.33;10.83;;;24.30;50.50;;;;;;5094990;28;20367;-71
2023/10/18 07:14:26;;;;;;;18.05;8.98;;;24.30;50.50;;;;;;5113590;28;20052;-71
2023/10/18 07:16:54;;;;;;;18.00;10.48;;;24.40;50.40;;;;;;5113242;28;20106;-72
2023/10/18 07:19:26;;;;;;;21.88;11.02;;;24.40;50.40;;;;;;5095156;28;20032;-73
2023/10/18 07:21:53;;;;;;;16.63;10.32;;;24.40;50.30;;;;;;5077886;28;20108;-71
2023/10/18 07:24:38;;;;;;;22.13;9.95;;;24.30;50.40;;;;;;5078176;28;20059;-71
2023/10/18 07:27:04;;;;;;;23.42;10.23;;;24.30;50.70;;;;;;5094803;28;20035;-69
2023/10/18 07:29:31;;;;;;;14.85;8.70;;;24.20;50.90;;;;;;5113015;28;20035;-70
2023/10/18 07:31:59;;;;;;;12.80;8.10;;;24.30;51.00;;;;;;5112871;28;20028;-70
2023/10/18 07:34:28;;;;;;;12.93;7.38;;;24.30;51.20;;;;;;5109693;28;20466;-71
2023/10/18 07:36:55;;;;;;;11.82;7.30;;;24.30;51.40;;;;;;5113208;28;20052;-72
2023/10/18 07:39:24;;;;;;;14.32;7.38;;;24.30;51.60;;;;;;5113110;28;20101;-72
2023/10/18 07:41:51;;;;;;;9.77;6.10;;;24.20;51.70;;;;;;5094498;28;20028;-70
2023/10/18 07:44:17;;;;;;;12.35;6.88;;;24.30;51.80;;;;;;5081647;28;20032;-73
2023/10/18 07:46:43;;;;;;;10.73;6.35;;;24.20;51.90;;;;;;5092255;28;20043;-72
2023/10/18 07:49:11;;;;;;;12.27;6.80;;;24.30;52.00;;;;;;5092304;28;20030;-72
2023/10/18 07:51:49;;;;;;;9.38;5.20;;;24.30;51.90;;;;;;5074234;28;20028;-71
2023/10/18 07:54:22;;;;;;;16.95;7.28;;;24.30;52.00;;;;;;5091970;28;20028;-72
2023/10/18 07:56:49;;;;;;;11.98;6.35;;;24.30;51.90;;;;;;5092190;28;20043;-69
2023/10/18 07:59:28;;;;;;;7.93;6.18;;;24.20;51.70;;;;;;5092355;28;20040;-73
2023/10/18 08:05:00;;;;;;;13.88;6.80;;;24.30;51.90;;;;;;5009663;28;20488;-71
2023/10/18 08:07:29;;;;;;;9.67;5.63;;;24.20;51.80;;;;;;5009684;28;20045;-73
2023/10/18 08:09:58;;;;;;;9.30;5.75;;;24.30;51.80;;;;;;5009870;28;20046;-72
2023/10/18 08:14:50;;;;;;;8.02;4.90;;;24.30;51.90;;;;;;5025612;28;20192;-72
2023/10/18 08:17:29;;;;;;;8.55;4.43;;;24.20;51.80;;;;;;5029539;28;20120;-72
2023/10/18 08:19:56;;;;;;;9.23;4.10;;;24.30;51.90;;;;;;5013001;28;20421;-72
2023/10/18 08:22:22;;;;;;;6.28;3.17;;;24.30;52.00;;;;;;5029077;28;20095;-70
2023/10/18 08:24:51;;;;;;;6.90;2.63;;;24.30;52.20;;;;;;5029014;28;20057;-70
2023/10/18 08:27:18;;;;;;;3.97;2.72;;;24.30;52.50;;;;;;5028769;28;20041;-70
2023/10/18 08:29:52;;;;;;;7.25;3.05;;;24.30;52.40;;;;;;5028901;28;20069;-70
2023/10/18 08:32:18;;;;;;;3.42;2.50;;;24.40;52.90;;;;;;5029029;28;20123;-71
2023/10/18 08:34:47;;;;;;;5.57;3.13;;;24.30;52.60;;;;;;5028822;28;20043;-71
2023/10/18 08:37:14;;;;;;;4.32;3.00;;;24.40;52.40;;;;;;5029030;28;20091;-69
2023/10/18 08:40:07;;;;;;;4.85;2.95;;;24.30;52.20;;;;;;5012231;28;20030;-71
2023/10/18 08:42:39;;;;;;;5.93;2.80;;;24.30;52.10;;;;;;5072515;28;20043;-72
2023/10/18 08:45:19;;;;;;;6.25;3.03;;;24.30;52.10;;;;;;5091793;28;20031;-70
2023/10/18 08:47:49;;;;;;;4.85;3.10;;;24.20;52.00;;;;;;5091204;28;20028;-71
2023/10/18 08:50:18;;;;;;;8.13;4.38;;;24.50;52.20;;;;;;5091254;28;20467;-71
2023/10/18 08:52:48;;;;;;;4.65;3.88;;;24.50;51.90;;;;;;5056155;28;20184;-72
2023/10/18 08:58:08;;;;;;;19.42;11.80;;;24.50;49.00;;;;;;5091220;28;20483;-73
2023/10/18 09:03:02;;;;;;;7.10;4.32;;;24.80;49.00;;;;;;5091132;28;20036;-72
2023/10/18 09:05:29;;;;;;;9.27;4.22;;;24.80;52.00;;;;;;5091361;28;20101;-71
2023/10/18 09:08:05;;;;;;;7.10;3.95;;;24.90;51.30;;;;;;5096438;28;20043;-73
2023/10/18 09:16:01;;;;;;;7.25;3.72;;;25.00;50.90;;;;;;5077435;28;20391;-74
2023/10/18 09:18:31;;;;;;;6.00;3.35;;;24.90;50.80;;;;;;5095044;28;20105;-74
2023/10/18 09:23:37;;;;;;;7.18;4.10;;;24.90;50.80;;;;;;5094909;28;20031;-72
2023/10/18 09:28:35;;;;;;;5.22;3.53;;;25.10;50.60;;;;;;5098850;28;20118;-72
2023/10/18 09:31:11;;;;;;;4.72;3.15;;;24.90;50.50;;;;;;5098218;28;20040;-73
2023/10/18 09:33:51;;;;;;;6.22;2.95;;;25.00;50.50;;;;;;5115415;28;20050;-72
2023/10/18 09:36:23;;;;;;;4.97;3.28;;;25.00;50.60;;;;;;5103697;28;20032;-72
2023/10/18 09:38:51;;;;;;;7.15;2.80;;;24.90;50.60;;;;;;5084084;28;20086;-72
2023/10/18 09:41:17;;;;;;;8.15;3.72;;;25.00;50.70;;;;;;5111090;28;20510;-73
2023/10/18 09:43:46;;;;;;;6.20;3.03;;;25.00;50.70;;;;;;5094143;28;20108;-72
2023/10/18 09:46:13;;;;;;;5.47;3.30;;;25.00;50.70;;;;;;5090083;28;20043;-72
2023/10/18 09:48:42;;;;;;;6.47;3.10;;;25.00;50.60;;;;;;5115024;28;20069;-72
2023/10/18 09:51:20;;;;;;;6.60;2.97;;;25.10;50.50;;;;;;5096606;28;20035;-72
2023/10/18 09:53:55;;;;;;;6.78;2.75;;;25.00;50.50;;;;;;5114885;28;20028;-71
2023/10/18 09:56:27;;;;;;;20.65;5.72;;;25.00;52.00;;;;;;5115136;28;20036;-71
2023/10/18 09:59:05;;;;;;;;;;;25.60;55.10;;;;;;5092029;28;20405;-71
2023/10/18 10:04:12;;;;;;;12.93;3.75;;;26.00;50.10;;;;;;5096678;28;20084;-72
2023/10/18 10:06:45;;;;;;;7.25;3.50;;;25.80;51.40;;;;;;5096831;28;20035;-71
2023/10/18 10:09:12;;;;;;;6.07;2.78;;;25.70;51.40;;;;;;5089930;28;20434;-70
2023/10/18 10:11:48;;;;;;;5.47;3.05;;;25.80;55.50;;;;;;5094307;28;20163;-71
2023/10/18 10:14:16;;;;;;;8.15;3.17;;;26.00;57.10;;;;;;5076378;28;20039;-72
2023/10/18 10:17:09;;;;;;;6.28;3.58;;;26.40;64.20;;;;;;5094388;28;20034;-70
2023/10/18 10:19:46;;;;;;;7.50;3.80;;;26.70;62.40;;;;;;5094098;28;20038;-69
2023/10/18 10:22:16;;;;;;;5.47;3.72;;;26.40;57.50;;;;;;5088902;28;20099;-71
2023/10/18 10:24:43;;;;;;;5.05;3.75;;;26.30;58.00;;;;;;5109328;28;20052;-72
2023/10/18 10:27:27;;;;;;;5.65;4.10;;;26.10;57.50;;;;;;5099421;28;20036;-70
2023/10/18 10:29:58;;;;;;;7.40;3.63;;;25.90;55.80;;;;;;5093903;28;20111;-70
2023/10/18 10:32:24;;;;;;;8.95;3.75;;;26.10;56.10;;;;;;5075639;28;20112;-71
2023/10/18 10:35:10;;;;;;;5.40;3.38;;;26.20;51.90;;;;;;5095288;28;20040;-71
2023/10/18 10:37:52;;;;;;;4.32;3.00;;;26.20;52.70;;;;;;5095465;28;20534;-73
2023/10/18 10:43:02;;;;;;;10.32;3.65;;;26.00;51.70;;;;;;5113933;28;20385;-73
2023/10/18 10:45:38;;;;;;;8.05;3.10;;;26.00;51.60;;;;;;5113930;28;20118;-71
2023/10/18 10:50:42;;;;;;;5.07;2.53;;;25.90;51.10;;;;;;5113930;28;20063;-71
2023/10/18 10:53:30;;;;;;;5.07;2.45;;;25.80;51.30;;;;;;5109720;28;20816;-69
2023/10/18 10:55:56;;;;;;;7.13;3.00;;;25.90;51.60;;;;;;5075463;28;20162;-70
2023/10/18 10:58:29;;;;;;;3.47;2.60;;;25.80;51.50;;;;;;5090367;28;20057;-71
2023/10/18 11:01:05;;;;;;;;;;;25.80;51.40;;;;;;5090249;28;20040;-70
2023/10/18 11:03:33;;;;;;;4.95;2.85;;;25.80;51.40;;;;;;5093136;28;20003;-69
2023/10/18 11:06:05;;;;;;;3.40;2.95;;;25.70;51.40;;;;;;5093278;28;20055;-71
2023/10/18 11:08:36;;;;;;;4.80;2.70;;;25.80;51.50;;;;;;5084258;28;20080;-68
2023/10/18 11:11:06;;;;;;;7.32;3.17;;;25.80;51.40;;;;;;5103790;28;20032;-68
2023/10/18 11:13:36;;;;;;;4.05;2.50;;;25.80;51.50;;;;;;5104043;28;20425;-68
2023/10/18 11:16:04;;;;;;;6.03;2.90;;;25.60;51.40;;;;;;5102511;28;20031;-69
2023/10/18 11:18:34;;;;;;;8.02;3.15;;;25.60;51.40;;;;;;5098380;28;20039;-69
2023/10/18 11:21:18;;;;;;;5.32;2.83;;;25.60;51.50;;;;;;5093283;28;20123;-69
2023/10/18 11:23:50;;;;;;;4.47;2.88;;;25.60;51.50;;;;;;5092534;28;20027;-69
2023/10/18 11:26:24;;;;;;;3.20;2.63;;;25.60;51.70;;;;;;5074439;28;20495;-69
2023/10/18 11:28:59;;;;;;;3.58;2.42;;;25.60;51.70;;;;;;5016594;28;20060;-69
2023/10/18 11:31:26;;;;;;;3.53;2.28;;;25.60;51.80;;;;;;5016488;28;20053;-71
2023/10/18 11:34:07;;;;;;;4.00;2.28;;;25.50;51.80;;;;;;5049631;28;20045;-69
2023/10/18 11:36:35;;;;;;;8.43;3.58;;;25.50;53.10;;;;;;5051550;28;20066;-71
2023/10/18 11:39:17;;;;;;;4.55;2.50;;;25.60;50.60;;;;;;5055969;28;20076;-70
2023/10/18 11:41:44;;;;;;;14.88;3.78;;;25.70;49.10;;;;;;5062269;28;20148;-70
2023/10/18 11:44:16;;;;;;;7.00;2.55;;;25.60;46.50;;;;;;5050449;28;20037;-71
2023/10/18 11:46:50;;;;;;;3.55;2.63;;;25.50;49.00;;;;;;5049546;28;20368;-69
2023/10/18 11:49:20;;;;;;;7.32;2.60;;;25.70;50.60;;;;;;5049616;28;20057;-69
2023/10/18 11:51:49;;;;;;;3.75;2.53;;;25.70;48.80;;;;;;5057004;28;20037;-69
2023/10/18 11:54:34;;;;;;;4.63;2.65;;;25.60;49.20;;;;;;5057699;28;20501;-68
2023/10/18 11:57:06;;;;;;;4.40;2.60;;;25.50;49.80;;;;;;5060166;28;20029;-69
2023/10/18 11:59:54;;;;;;;3.58;2.35;;;25.80;53.20;;;;;;5052661;28;20059;-68
2023/10/18 12:02:25;;;;;;;3.85;2.13;;;26.00;51.70;;;;;;5069731;28;20040;-70
2023/10/18 12:04:52;;;;;;;4.40;2.60;;;26.00;50.60;;;;;;5069037;28;20123;-69
2023/10/18 12:07:18;;;;;;;3.28;2.22;;;25.70;50.10;;;;;;5069303;28;20059;-70
2023/10/18 12:09:45;;;;;;;3.30;2.10;;;25.70;50.50;;;;;;5077971;28;20353;-71
2023/10/18 12:12:19;;;;;;;4.53;2.40;;;25.70;50.50;;;;;;5092292;28;20401;-75
2023/10/18 12:14:46;;;;;;;3.40;2.30;;;25.60;50.60;;;;;;5103003;28;20042;-75
2023/10/18 12:17:13;;;;;;;4.97;2.60;;;25.50;50.80;;;;;;5101140;28;20032;-73
2023/10/18 12:19:40;;;;;;;9.05;2.80;;;25.50;51.10;;;;;;5106872;28;20081;-73
2023/10/18 12:22:09;;;;;;;10.35;2.95;;;25.50;56.40;;;;;;5094548;28;20123;-72
2023/10/18 12:24:35;;;;;;;7.20;2.20;;;25.50;58.90;;;;;;5092416;28;20425;-75
2023/10/18 12:27:15;;;;;;;3.47;2.22;;;25.30;61.40;;;;;;5074234;28;20367;-75
2023/10/18 12:29:44;;;;;;;3.58;2.03;;;25.50;59.40;;;;;;5074431;28;20097;-77
2023/10/18 12:32:26;;;;;;;4.15;2.58;;;25.30;59.20;;;;;;5077973;28;20505;-77
2023/10/18 12:34:58;;;;;;;5.30;2.67;;;25.30;57.80;;;;;;5097953;28;20375;-76
2023/10/18 12:37:25;;;;;;;2.87;2.43;;;25.30;56.60;;;;;;5074042;28;20028;-76
2023/10/18 12:39:51;;;;;;;3.30;2.45;;;25.30;55.70;;;;;;5078281;28;20088;-74
2023/10/18 12:42:21;;;;;;;6.80;2.35;;;25.30;55.00;;;;;;5108275;28;20029;-74
2023/10/18 12:44:47;;;;;;;3.78;2.20;;;25.40;54.30;;;;;;5111939;28;20080;-73
2023/10/18 12:47:19;;;;;;;2.53;1.52;;;25.30;53.70;;;;;;5111841;28;20044;-76
2023/10/18 12:49:50;;;;;;;2.65;1.42;;;25.30;53.30;;;;;;5112076;28;20050;-70
2023/10/18 12:55:25;;;;;;;3.78;1.85;;;25.40;52.80;;;;;;5111957;28;20467;-67
2023/10/18 12:57:51;;;;;;;7.80;2.00;;;25.30;52.70;;;;;;5111658;28;20403;-69
2023/10/18 13:00:17;;;;;;;3.50;2.00;;;25.30;52.70;;;;;;5111741;28;20511;-69
2023/10/18 13:02:49;;;;;;;6.80;2.65;;;25.30;52.80;;;;;;5111511;28;20110;-68
2023/10/18 13:05:15;;;;;;;2.35;1.90;;;25.30;52.90;;;;;;5111525;28;20039;-75
2023/10/18 13:07:44;;;;;;;2.42;2.10;;;25.30;52.90;;;;;;5093171;28;20035;-73
2023/10/18 13:10:12;;;;;;;6.43;2.17;;;25.30;52.80;;;;;;5111763;28;20039;-73
2023/10/18 13:12:44;;;;;;;8.68;2.15;;;25.30;52.60;;;;;;5093399;28;20027;-73
2023/10/18 13:15:11;;;;;;;5.97;1.80;;;25.40;52.50;;;;;;5111580;28;20039;-73
2023/10/18 13:17:37;;;;;;;3.55;2.13;;;25.20;52.20;;;;;;5105818;28;20031;-74
2023/10/18 13:20:06;;;;;;;5.18;2.10;;;25.30;52.10;;;;;;5111874;28;20027;-74
2023/10/18 13:22:34;;;;;;;4.25;1.73;;;25.30;52.00;;;;;;5093372;28;20028;-73
2023/10/18 13:25:08;;;;;;;5.72;1.92;;;25.30;51.70;;;;;;5111400;28;20082;-73
2023/10/18 13:27:40;;;;;;;4.53;2.10;;;25.30;51.50;;;;;;5093167;28;20552;-73
2023/10/18 13:30:31;;;;;;;4.32;1.58;;;25.30;51.40;;;;;;5093384;28;20035;-73
2023/10/18 13:33:00;;;;;;;2.47;1.70;;;25.30;51.20;;;;;;5092876;28;20036;-73
2023/10/18 13:35:28;;;;;;;2.03;1.70;;;25.30;51.10;;;;;;5111220;28;20107;-73
2023/10/18 13:37:59;;;;;;;4.45;1.98;;;25.30;51.10;;;;;;5088945;28;20065;-73
2023/10/18 13:40:27;;;;;;;3.38;2.00;;;25.20;51.00;;;;;;5058042;28;20082;-72
2023/10/18 13:42:54;;;;;;;9.93;1.90;;;25.20;50.90;;;;;;5068304;28;20157;-72
2023/10/18 13:45:27;;;;;;;4.75;2.17;;;25.20;50.90;;;;;;5067963;28;20044;-73
2023/10/18 13:47:53;;;;;;;2.10;1.50;;;25.20;50.80;;;;;;5068160;28;20399;-73
2023/10/18 13:50:19;;;;;;;3.47;1.75;;;25.20;50.80;;;;;;5068181;28;20048;-72
2023/10/18 13:52:47;;;;;;;4.25;1.63;;;25.10;50.80;;;;;;5035351;28;20029;-72
2023/10/18 13:55:14;;;;;;;3.30;1.35;;;25.20;50.80;;;;;;5055132;28;20052;-72
2023/10/18 13:57:40;;;;;;;2.53;1.63;;;25.20;50.80;;;;;;5054753;28;20039;-72
2023/10/18 14:00:07;;;;;;;3.17;1.88;;;25.20;50.80;;;;;;5038489;28;20504;-72
2023/10/18 14:02:38;;;;;;;5.75;1.73;;;25.10;50.80;;;;;;5071704;28;20125;-72
2023/10/18 14:05:15;;;;;;;2.67;1.85;;;25.10;50.80;;;;;;5071347;28;20432;-72
2023/10/18 14:07:44;;;;;;;3.30;1.55;;;25.20;50.80;;;;;;5054820;28;20153;-72